Pahranagat National Wildlife Refuge, Nevada Weather observations

Data are for 10 minute period ending at time listed.
 Day   Time   Solar   Ave.   Ave.  Ave.  Vector  Max.   Baro.   Total    
  of    of     Rad.   Air    Rel.  Wind   Wind   Wind  Press.  Precip.   
Year   Day            Temp.  Hum.  Speed  Dir.   Gust                    
2015   (PST)  Kw/m2    F      %     mph   deg.    mph    mb.     in.     
-------------------------------------------------------------------------
 146   17:50   0.03   72.7    37   11.0   349    16.5   899.2    0.00 
 146   18:00   0.04   73.0    34    9.3    17    15.1   899.6    0.00 
 146   18:10   0.05   72.5    34    9.2    24    14.2   899.7    0.00 
 146   18:20   0.05   72.2    35    9.1     8    15.7   899.9    0.00 
 146   18:30   0.03   71.0    38   10.4    14    16.1   899.9    0.00 
 146   18:40   0.01   70.6    38    9.1    19    16.1   899.8    0.00 
 146   18:50   0.00   70.5    38   10.3     8    15.9   899.7    0.00 
 146   19:00   0.00   70.2    39    8.9   347    16.5   899.8    0.00 
 146   19:10   0.00   70.2    38    8.8   351    14.2   900.0    0.00 
 146   19:20   0.00   70.8    36   10.2     8    16.1   900.0    0.00 
 146   19:30   0.00   69.7    41    8.2   356    14.0   900.1    0.00 
 146   19:40   0.00   68.8    44    7.5   347    12.5   900.2    0.00 
 146   19:50   0.00   68.6    45    7.9   340    13.4   900.3    0.00 
 146   20:00   0.00   68.1    46    7.8   343    13.0   900.4    0.00 
 146   20:10   0.00   67.6    46    7.7   330    12.7   900.6    0.00 
 146   20:20   0.00   67.2    47   11.1   337    18.8   900.7    0.00 
 146   20:30   0.00   66.4    48    9.5   331    13.8   900.9    0.00 
 146   20:40   0.00   65.5    51    9.3   336    14.9   901.0    0.00 
 146   20:50   0.00   64.6    53    8.1   334    13.8   901.0    0.00 
 146   21:00   0.00   63.8    55    7.1   336    10.7   901.1    0.00 
 146   21:10   0.00   62.9    56    5.8   340     9.8   901.1    0.00 
 146   21:20   0.00   62.2    58    5.4   340     9.9   901.1    0.00 
 146   21:30   0.00   61.9    59    5.4   346     9.5   901.1    0.00 
 146   21:40   0.00   61.3    60    4.0   352     6.4   901.2    0.00 
 146   21:50   0.00   60.8    62    5.0   349     7.0   901.3    0.00 
 146   22:00   0.00   60.1    63    5.4   347     7.5   901.3    0.00 
 146   22:10   0.00   59.3    64    5.2   346     6.9   901.2    0.00 
 146   22:20   0.00   59.3    65    3.7   352     5.3   901.2    0.00 
 146   22:30   0.00   58.9    67    5.1   348     6.3   901.2    0.00 
 146   22:40   0.00   58.2    70    5.1   350     6.6   901.1    0.00 
 146   22:50   0.00   57.5    71    4.4   338     5.5   901.2    0.00 
 146   23:00   0.00   55.9    74    4.1   323     5.3   901.3    0.00 
 146   23:10   0.00   55.6    76    1.9   332     4.8   901.3    0.00 
 146   23:20   0.00   58.0    72    2.4   317     7.3   901.4    0.00 
 146   23:30   0.00   58.3    68    4.3   344     7.3   901.3    0.00 
 146   23:40   0.00   58.0    70    6.4   348    10.7   901.4    0.00 
 146   23:50   0.00   58.8    68    6.3   346     9.8   901.5    0.00 
 147    0:00   0.00   58.4    69    5.9   329     9.4   901.5    0.00 
 147    0:10   0.00   57.2    72    3.5   338     6.6   901.6    0.00 
 147    0:20   0.00   56.9    72    5.1   348     7.3   901.6    0.00 
 147    0:30   0.00   56.7    73    4.7   350     6.9   901.7    0.00 
 147    0:40   0.00   56.6    74    4.7   352     6.3   901.8    0.00 
 147    0:50   0.00   56.5    74    4.7   320     6.8   901.8    0.00 
 147    1:00   0.00   55.6    75    2.4     4     3.7   901.8    0.00 
 147    1:10   0.00   55.5    76    3.5     9     4.6   901.8    0.00 
 147    1:20   0.00   55.3    74    2.5   325     4.1   901.8    0.00 
 147    1:30   0.00   54.6    77    1.1   251     1.6   901.8    0.00 
 147    1:40   0.00   56.1    72    2.0   304     2.7   901.8    0.00 
 147    1:50   0.00   56.4    71    2.6   327     2.9   901.9    0.00 
 147    2:00   0.00   54.4    73    1.5   327     2.6   901.9    0.00 
 147    2:10   0.00   52.9    79    2.7   306     3.9   901.8    0.00 
 147    2:20   0.00   53.1    78    2.5   312     3.8   901.9    0.00 
 147    2:30   0.00   52.8    78    2.4   313     4.5   901.9    0.00 
 147    2:40   0.00   53.0    78    2.3   314     5.3   902.0    0.00 
 147    2:50   0.00   52.3    80    1.7   323     2.8   902.0    0.00 
 147    3:00   0.00   51.5    83    2.9   356     3.9   902.1    0.00 
 147    3:10   0.00   51.1    85    4.1   352     4.9   902.1    0.00 
 147    3:20   0.00   51.1    85    4.3   350     5.3   902.1    0.00 
 147    3:30   0.00   51.0    86    4.6   346     5.8   902.2    0.00 
 147    3:40   0.00   52.0    84    4.5   330     5.8   902.3    0.00 
 147    3:50   0.00   51.7    84    3.3   336     4.8   902.3    0.00 
 147    4:00   0.00   52.2    83    3.5   354     5.2   902.3    0.00 
 147    4:10   0.00   51.6    83    3.6   332     4.3   902.4    0.00 
 147    4:20   0.00   50.6    85    1.3   273     3.9   902.5    0.00 
 147    4:30   0.01   50.6    85    1.6   288     2.9   902.5    0.00 
 147    4:40   0.01   49.4    86    0.7    17     2.5   902.5    0.00 
 147    4:50   0.03   50.9    86    3.2   358     4.1   902.4    0.00 
 147    5:00   0.04   51.6    84    3.2   331     3.7   902.5    0.00 
 147    5:10   0.07   51.5    83    2.0   310     2.8   902.6    0.00 
 147    5:20   0.09   52.8    83    0.4    89     1.3   902.7    0.00 
 147    5:30   0.11   54.9    82    0.9   282     3.3   902.8    0.00 
 147    5:40   0.14   56.6    78    3.8   323     6.8   902.8    0.00 
 147    5:50   0.16   57.8    74    4.2   333     6.8   902.8    0.00 
 147    6:00   0.19   59.3    69    4.4   339     7.0   902.8    0.00 
 147    6:10   0.22   60.4    66    5.4   334     8.3   902.9    0.00 
 147    6:20   0.25   61.1    63    7.2   342    10.2   903.0    0.00 
 147    6:30   0.28   61.9    62    7.1   336    10.3   903.0    0.00 
 147    6:40   0.31   62.5    62    7.8   335    12.0   903.1    0.00 
 147    6:50   0.34   63.2    60    7.8   339    11.8   903.0    0.00 
 147    7:00   0.37   64.5    57    7.6   337    11.1   903.0    0.00 
 147    7:10   0.40   65.8    55    6.8   341     9.9   903.0    0.00 
 147    7:20   0.42   67.6    52    6.2   338     9.6   902.9    0.00 
 147    7:30   0.45   68.1    49    6.5   330     9.6   902.8    0.00 
 147    7:40   0.48   68.7    48    6.0   333     9.5   902.7    0.00 
 147    7:50   0.51   69.7    44    5.7   335     8.7   902.6    0.00 
 147    8:00   0.54   70.6    41    4.8   334     8.5   902.6    0.00 
 147    8:10   0.56   71.8    39    4.5   339     7.7   902.5    0.00 
 147    8:20   0.59   72.3    35    4.0   323     6.7   902.4    0.00 
 147    8:30   0.61   73.3    32    3.3   354     6.1   902.3    0.00 
 147    8:40   0.64   74.1    31    2.9    23     6.5   902.2    0.00 
 147    8:50   0.66   75.5    30    1.6    11     3.4   902.0    0.00 
 147    9:00   0.68   76.0    28    2.5    12     6.9   902.0    0.00 
 147    9:10   0.70   76.2    27    2.2   227     6.4   901.8    0.00 
 147    9:20   0.72   77.8    26    3.6   172     7.7   901.7    0.00 
 147    9:30   0.74   79.0    25    6.2   162     9.8   901.7    0.00 
 147    9:40   0.76   79.2    24    5.9   161    10.0   901.5    0.00 
 147    9:50   0.78   79.7    21    8.9   147    16.1   901.4    0.00 
 147   10:00   0.80   80.3    20    8.9   150    15.3   901.4    0.00 
 147   10:10   0.81   80.4    20    9.4   151    16.7   901.3    0.00 
 147   10:20   0.82   81.1    20    9.0   148    14.9   901.3    0.00 
 147   10:30   0.84   81.0    18   10.2   142    16.2   901.2    0.00 
 147   10:40   0.85   81.2    18    9.7   134    15.3   901.1    0.00 
 147   10:50   0.86   82.3    18    9.6   147    15.4   901.0    0.00 
 147   11:00   0.86   82.5    18    9.6   156    20.0   900.9    0.00 
 147   11:10   0.87   82.9    18    9.5   145    15.4   900.9    0.00 
 147   11:20   0.88   82.5    17   10.5   139    15.4   900.8    0.00 
 147   11:30   0.88   83.2    17    8.4   167    14.5   900.7    0.00 
 147   11:40   0.88   83.7    17    9.0   167    15.7   900.6    0.00 
 147   11:50   0.88   84.1    17   10.2   150    15.1   900.5    0.00 
 147   12:00   0.88   84.3    16   10.7   152    16.5   900.4    0.00 
 147   12:10   0.88   84.0    16   10.8   152    17.0   900.3    0.00 
 147   12:20   0.88   83.7    16   12.0   153    19.5   900.2    0.00 
 147   12:30   0.87   84.2    16   10.1   142    17.4   900.1    0.00 
 147   12:40   0.87   84.7    16   10.0   148    21.1   900.0    0.00 
 147   12:50   0.86   84.8    15   11.2   144    17.3   899.9    0.00 
 147   13:00   0.85   85.1    16   10.3   149    16.1   899.8    0.00 
 147   13:10   0.84   84.8    15   12.1   146    18.3   899.6    0.00 
 147   13:20   0.83   85.2    15   10.8   150    19.6   899.4    0.00 
 147   13:30   0.81   84.8    15   11.2   139    20.0   899.3    0.00 
 147   13:40   0.80   85.0    14   10.5   143    20.0   899.1    0.00 
 147   13:50   0.78   85.4    15   10.1   154    17.1   899.0    0.00 
 147   14:00   0.77   85.9    15   11.0   147    18.4   898.9    0.00 
 147   14:10   0.75   86.0    15   11.5   140    18.0   898.7    0.00 
 147   14:20   0.73   86.0    14   12.5   131    20.8   898.5    0.00 
 147   14:30   0.70   85.7    14   12.9   137    20.0   898.4    0.00 
 147   14:40   0.66   86.0    15   11.5   156    19.4   898.3    0.00 
 147   14:50   0.65   85.8    15   12.0   147    18.3   898.1    0.00 
 147   15:00   0.64   85.7    14   12.7   139    19.3   897.9    0.00 
 147   15:10   0.61   85.8    14   12.3   144    21.5   897.9    0.00 
 147   15:20   0.59   85.7    14   12.0   144    21.3   897.9    0.00 
 147   15:30   0.56   85.6    14   11.8   142    17.6   897.8    0.00 
 147   15:40   0.54   85.7    14   12.4   147    19.2   897.7    0.00 
 147   15:50   0.48   85.6    14   12.9   139    19.1   897.7    0.00 
 147   16:00   0.35   84.8    14   13.6   126    19.6   897.6    0.00 
 147   16:10   0.34   84.5    15   11.0   143    18.7   897.6    0.00 
 147   16:20   0.36   85.1    15   11.9   152    17.8   897.6    0.00 
 147   16:30   0.20   83.6    15   11.1   152    17.7   897.5    0.00 
 147   16:40   0.21   83.8    14   11.8   145    18.7   897.5    0.00 
 147   16:50   0.25   83.5    15   10.3   153    15.6   897.4    0.00 
 147   17:00   0.29   83.9    14   13.2   147    21.0   897.4    0.00 
 147   17:10   0.26   83.8    13   12.5   140    18.0   897.4    0.00 
 147   17:20   0.05   82.1    15   10.0   146    15.7   897.5    0.00 
 147   17:30   0.04   80.4    15   10.3   150    16.3   897.5    0.00 
 147   17:40   0.08   79.9    16    9.3   146    15.3   897.6    0.00 

Return to Pahranagat N. Wildlife Refuge graphs page.


Western Regional Climate Center,wrcc@dri.edu